createdAt,value
2016-12-13T00:02:32.539Z,0.13
2016-12-13T00:05:26.612Z,0.12
2016-12-13T00:08:21.330Z,0.13
2016-12-13T00:11:13.905Z,0.14
2016-12-13T00:17:01.316Z,0.15
2016-12-13T00:19:55.078Z,0.14
2016-12-13T00:25:42.329Z,0.08
2016-12-13T00:31:29.616Z,0.07
2016-12-13T00:34:23.176Z,0.06
2016-12-13T00:37:16.818Z,0.05
2016-12-13T00:40:10.354Z,0.06
2016-12-13T00:43:04.044Z,0.07
2016-12-13T00:48:51.770Z,0.04
2016-12-13T00:54:40.041Z,0.98
2016-12-13T01:00:26.252Z,0.94
2016-12-13T01:03:20.040Z,0.93
2016-12-13T01:06:13.673Z,0.93
2016-12-13T01:09:07.326Z,0.91
2016-12-13T01:12:01.064Z,0.89
2016-12-13T01:14:54.671Z,0.89
2016-12-13T01:17:48.360Z,0.90
2016-12-13T01:26:29.638Z,0.87
2016-12-13T01:32:17.022Z,0.87
2016-12-13T01:46:45.015Z,0.96
2016-12-13T01:49:38.567Z,0.99
2016-12-13T01:55:25.856Z,0.04
2016-12-13T02:04:06.860Z,0.13
2016-12-13T02:12:47.957Z,0.22
2016-12-13T02:15:41.618Z,0.23
2016-12-13T02:24:22.640Z,0.27
2016-12-13T02:27:16.339Z,0.29
2016-12-13T02:30:09.959Z,0.29
2016-12-13T02:33:03.541Z,0.29
2016-12-13T02:35:57.071Z,0.29
2016-12-13T02:38:50.735Z,0.32
2016-12-13T02:41:45.305Z,0.34
2016-12-13T02:44:37.928Z,0.35
2016-12-13T02:47:32.481Z,0.36
2016-12-13T02:50:25.212Z,0.37
2016-12-13T02:53:18.803Z,0.36
2016-12-13T03:04:54.386Z,0.36
2016-12-13T03:07:46.964Z,0.38
2016-12-13T03:10:40.594Z,0.42
2016-12-13T03:13:34.209Z,0.44
2016-12-13T03:16:27.929Z,0.45
2016-12-13T03:19:21.599Z,0.48
2016-12-13T03:25:09.855Z,0.49
2016-12-13T03:30:56.120Z,0.51
2016-12-13T03:39:37.128Z,0.54
2016-12-13T03:51:11.895Z,0.75
2016-12-13T03:54:05.671Z,0.78
2016-12-13T03:56:59.360Z,0.81
2016-12-13T03:59:53.041Z,0.83
2016-12-13T04:02:46.753Z,0.86
2016-12-13T04:08:34.091Z,0.88
2016-12-13T04:11:27.867Z,0.89
2016-12-13T04:14:21.504Z,0.91
2016-12-13T04:17:16.100Z,0.91
2016-12-13T04:20:09.003Z,0.91
2016-12-13T04:25:56.603Z,0.91
2016-12-13T04:28:50.419Z,0.93
2016-12-13T04:31:45.129Z,0.95
2016-12-13T04:34:38.857Z,0.98
2016-12-13T04:43:19.076Z,0.99
2016-12-13T04:49:06.415Z,1.05
2016-12-13T04:52:00.436Z,1.09
2016-12-13T04:54:54.178Z,1.12
2016-12-13T04:57:47.878Z,1.13
2016-12-13T05:00:41.518Z,1.13
2016-12-13T05:09:22.756Z,1.12
2016-12-13T05:12:16.367Z,1.13
2016-12-13T05:15:10.244Z,1.15
2016-12-13T05:20:58.184Z,1.16
2016-12-13T05:23:51.794Z,1.18
2016-12-13T05:26:45.667Z,1.20
2016-12-13T05:29:39.360Z,1.22
2016-12-13T05:32:33.081Z,1.25
2016-12-13T05:35:26.852Z,1.26
2016-12-13T05:38:21.471Z,1.29
2016-12-13T05:44:08.085Z,1.35
2016-12-13T05:47:01.851Z,1.37
2016-12-13T05:49:55.537Z,1.41
2016-12-13T05:52:49.231Z,1.45
2016-12-13T05:55:43.999Z,1.47
2016-12-13T05:58:36.741Z,1.48
2016-12-13T06:07:18.016Z,1.61
2016-12-13T06:10:11.878Z,1.65
2016-12-13T06:13:05.573Z,1.69
2016-12-13T06:15:59.407Z,1.72
2016-12-13T06:39:09.842Z,1.80
2016-12-13T06:42:03.602Z,1.82
2016-12-13T06:47:51.150Z,1.82
2016-12-13T06:53:39.692Z,1.84
2016-12-13T06:56:32.521Z,1.85
2016-12-13T07:02:20.121Z,1.87
2016-12-13T07:05:13.987Z,1.91
2016-12-13T07:08:07.695Z,1.94
2016-12-13T07:11:01.605Z,1.99
2016-12-13T07:13:55.383Z,1.99
2016-12-13T07:22:36.736Z,2.06
2016-12-13T07:25:31.568Z,2.10
2016-12-13T07:28:24.422Z,2.11
2016-12-13T07:31:18.179Z,2.11
2016-12-13T07:34:12.054Z,2.15
2016-12-13T07:37:05.833Z,2.17
2016-12-13T07:42:53.494Z,2.18
2016-12-13T07:45:47.192Z,2.18
2016-12-13T07:48:40.979Z,2.19
2016-12-13T07:54:28.596Z,2.22
2016-12-13T07:57:22.553Z,2.24
2016-12-13T08:00:16.379Z,2.27
2016-12-13T08:03:11.111Z,2.30
2016-12-13T08:06:03.996Z,2.33
2016-12-13T08:08:57.857Z,2.36
2016-12-13T08:11:51.615Z,2.39
2016-12-13T08:17:39.180Z,2.46
2016-12-13T08:20:32.983Z,2.49
2016-12-13T08:23:27.809Z,2.51
2016-12-13T08:29:14.692Z,2.54
2016-12-13T08:32:08.581Z,2.57
2016-12-13T08:35:03.371Z,2.60
2016-12-13T08:40:50.223Z,2.66
2016-12-13T08:43:44.011Z,2.69
2016-12-13T08:46:37.841Z,2.71
2016-12-13T08:55:19.226Z,2.79
2016-12-13T09:01:07.080Z,2.84
2016-12-13T09:04:00.806Z,2.86
2016-12-13T09:06:54.719Z,2.90
2016-12-13T09:09:48.553Z,2.94
2016-12-13T09:15:36.112Z,3.03
2016-12-13T09:18:30.901Z,3.08
2016-12-13T09:21:23.788Z,3.11
2016-12-13T09:27:11.490Z,3.18
2016-12-13T09:30:05.365Z,3.16
2016-12-13T09:35:52.933Z,3.21
2016-12-13T09:38:46.804Z,3.23
2016-12-13T09:44:34.730Z,3.33
2016-12-13T09:47:28.635Z,3.35
2016-12-13T09:56:10.413Z,3.43
2016-12-13T09:59:05.150Z,3.45
2016-12-13T10:04:52.365Z,3.47
2016-12-13T10:07:46.142Z,3.53
2016-12-13T10:10:39.978Z,3.58
2016-12-13T10:16:27.662Z,3.70
2016-12-13T10:19:21.510Z,3.74
2016-12-13T10:25:09.364Z,3.84
2016-12-13T10:28:03.153Z,3.89
2016-12-13T10:30:57.043Z,3.92
2016-12-13T10:36:46.400Z,3.99
2016-12-13T10:42:33.397Z,4.12
2016-12-13T10:45:27.339Z,4.18
2016-12-13T10:48:21.129Z,4.22
2016-12-13T10:51:15.053Z,4.24
2016-12-13T10:54:09.903Z,4.27
2016-12-13T10:59:56.820Z,4.35
2016-12-13T11:05:44.475Z,4.41
2016-12-13T11:08:38.457Z,4.45
2016-12-13T11:11:32.466Z,4.48
2016-12-13T11:14:26.751Z,4.52
2016-12-13T11:26:03.163Z,4.71
2016-12-13T11:28:57.078Z,4.74
2016-12-13T11:31:50.915Z,4.77
2016-12-13T11:34:46.313Z,4.80
2016-12-13T11:37:39.225Z,4.83
2016-12-13T11:40:33.101Z,4.86
2016-12-13T11:43:28.030Z,4.88
2016-12-13T11:46:20.876Z,4.90
2016-12-13T11:49:14.721Z,4.94
2016-12-13T11:52:08.795Z,4.99
2016-12-13T11:55:02.676Z,5.03
2016-12-13T11:57:56.735Z,5.06
2016-12-13T12:00:50.654Z,5.10
2016-12-13T12:03:44.455Z,5.14
2016-12-13T12:06:39.355Z,5.19
2016-12-13T12:09:32.384Z,5.24
2016-12-13T12:12:26.281Z,5.29
2016-12-13T12:18:14.242Z,5.32
2016-12-13T12:21:08.111Z,5.35
2016-12-13T12:24:02.128Z,5.36
2016-12-13T12:29:49.888Z,5.41
2016-12-13T12:32:43.843Z,5.44
2016-12-13T12:35:37.693Z,5.47
2016-12-13T12:38:31.634Z,5.50
2016-12-13T12:41:25.688Z,5.54
2016-12-13T12:44:20.703Z,5.57
2016-12-13T12:47:13.631Z,5.60
2016-12-13T12:50:07.582Z,5.63
2016-12-13T12:53:01.491Z,5.66
2016-12-13T12:55:55.477Z,5.66
2016-12-13T12:58:49.398Z,5.65
2016-12-13T13:01:43.834Z,5.65
2016-12-13T13:04:37.923Z,5.65
2016-12-13T13:07:33.141Z,5.65
2016-12-13T13:10:26.050Z,5.65
2016-12-13T13:13:19.971Z,5.65
2016-12-13T13:16:13.873Z,5.65
2016-12-13T13:19:07.849Z,5.65
2016-12-13T13:22:02.761Z,5.65
2016-12-13T13:30:43.638Z,5.65
2016-12-13T13:33:37.639Z,5.65
2016-12-13T13:39:25.604Z,5.64
2016-12-13T13:42:19.530Z,5.63
2016-12-13T13:45:13.564Z,5.63
2016-12-13T13:48:07.463Z,5.61
2016-12-13T13:51:01.470Z,5.60
2016-12-13T13:53:55.477Z,5.59
2016-12-13T13:56:49.663Z,5.57
2016-12-13T13:59:43.681Z,5.56
2016-12-13T14:02:37.736Z,5.53
2016-12-13T14:05:31.700Z,5.50
2016-12-13T14:11:19.609Z,5.41
2016-12-13T14:14:13.567Z,5.36
2016-12-13T14:17:07.466Z,5.30
2016-12-13T14:20:01.729Z,5.25
2016-12-13T14:25:49.858Z,5.16
2016-12-13T14:28:43.700Z,5.13
2016-12-13T14:34:31.606Z,5.06
2016-12-13T14:37:25.601Z,5.04
2016-12-13T14:43:14.875Z,4.99
2016-12-13T14:46:07.849Z,4.98
2016-12-13T14:49:01.892Z,4.96
2016-12-13T14:51:56.818Z,4.94
2016-12-13T14:54:49.782Z,4.93
2016-12-13T15:00:37.658Z,4.91
2016-12-13T15:06:25.612Z,4.89
2016-12-13T15:12:14.296Z,4.88
2016-12-13T15:20:56.182Z,4.86
2016-12-13T15:23:50.096Z,4.86
2016-12-13T15:26:43.950Z,4.87
2016-12-13T15:32:32.675Z,4.88
2016-12-13T15:35:25.638Z,4.87
2016-12-13T15:52:49.253Z,4.85
2016-12-13T15:55:43.259Z,4.85
2016-12-13T15:58:37.235Z,4.86
2016-12-13T16:01:31.615Z,4.86
2016-12-13T16:07:19.265Z,4.87
2016-12-13T16:10:14.276Z,4.88
2016-12-13T16:13:07.234Z,4.89
2016-12-13T16:16:01.185Z,4.90
2016-12-13T16:21:48.976Z,4.90
2016-12-13T16:24:42.980Z,4.90
2016-12-13T16:27:36.778Z,4.91
2016-12-13T16:30:30.725Z,4.92
2016-12-13T16:33:24.605Z,4.93
2016-12-13T16:36:18.682Z,4.94
2016-12-13T16:47:54.468Z,4.93
2016-12-13T16:50:48.333Z,4.91
2016-12-13T16:53:42.212Z,4.91
2016-12-13T16:59:30.022Z,4.93
2016-12-13T17:02:25.166Z,4.93
2016-12-13T17:05:18.115Z,4.95
2016-12-13T17:08:11.967Z,4.97
2016-12-13T17:11:05.902Z,4.97
2016-12-13T17:13:59.821Z,4.99
2016-12-13T17:16:54.783Z,5.01
2016-12-13T17:22:41.755Z,5.05
2016-12-13T17:28:29.592Z,5.10
2016-12-13T17:31:23.492Z,5.13
2016-12-13T17:34:17.338Z,5.15
2016-12-13T17:40:05.289Z,5.20
2016-12-13T17:42:59.239Z,5.22
2016-12-13T17:45:53.149Z,5.24
2016-12-13T17:48:47.193Z,5.26
2016-12-13T17:51:41.113Z,5.27
2016-12-13T17:57:28.978Z,5.30
2016-12-13T18:00:22.924Z,5.31
2016-12-13T18:03:16.883Z,5.32
2016-12-13T18:06:10.724Z,5.33
2016-12-13T18:14:52.636Z,5.38
2016-12-13T18:17:46.610Z,5.39
2016-12-13T18:20:41.637Z,5.39
2016-12-13T18:23:34.591Z,5.41
2016-12-13T18:29:22.469Z,5.44
2016-12-13T18:32:16.350Z,5.44
2016-12-13T18:35:10.176Z,5.44
2016-12-13T18:38:04.058Z,5.43
2016-12-13T18:40:58.071Z,5.44
2016-12-13T19:01:16.453Z,5.47
2016-12-13T19:04:10.579Z,5.48
2016-12-13T19:07:04.679Z,5.49
2016-12-13T19:09:58.697Z,5.50
2016-12-13T19:12:52.782Z,5.50
2016-12-13T19:15:46.788Z,5.49
2016-12-13T19:18:40.965Z,5.50
2016-12-13T19:21:34.982Z,5.52
2016-12-13T19:24:29.072Z,5.52
2016-12-13T19:27:23.230Z,5.53
2016-12-13T19:33:11.358Z,5.52
2016-12-13T19:36:05.432Z,5.52
2016-12-13T19:41:53.674Z,5.51
2016-12-13T19:44:47.804Z,5.52
2016-12-13T19:47:41.972Z,5.52
2016-12-13T19:56:24.340Z,5.53
2016-12-13T20:05:07.160Z,5.55
2016-12-13T20:08:02.164Z,5.56
2016-12-13T20:13:49.409Z,5.59
2016-12-13T20:16:43.417Z,5.61
2016-12-13T20:19:37.508Z,5.60
2016-12-13T20:22:31.447Z,5.59
2016-12-13T20:25:25.553Z,5.61
2016-12-13T20:28:19.586Z,5.62
2016-12-13T20:34:07.650Z,5.65
2016-12-13T20:37:01.835Z,5.66
2016-12-13T20:39:55.940Z,5.66
2016-12-13T20:42:50.058Z,5.66
2016-12-13T20:48:37.980Z,5.66
2016-12-13T20:51:31.899Z,5.66
2016-12-13T20:54:25.928Z,5.66
2016-12-13T20:57:19.986Z,5.66
2016-12-13T21:00:13.997Z,5.68
2016-12-13T21:03:08.080Z,5.70
2016-12-13T21:06:02.138Z,5.72
2016-12-13T21:08:56.202Z,5.73
2016-12-13T21:20:32.437Z,5.81
2016-12-13T21:23:26.468Z,5.83
2016-12-13T21:26:20.488Z,5.85
2016-12-13T21:32:08.527Z,5.88
2016-12-13T21:35:02.529Z,5.87
2016-12-13T21:37:56.718Z,5.87
2016-12-13T21:40:50.844Z,5.87
2016-12-13T21:43:44.849Z,5.86
2016-12-13T21:46:38.818Z,5.86
2016-12-13T21:49:32.865Z,5.85
2016-12-13T21:52:26.917Z,5.87
2016-12-13T21:58:15.092Z,5.90
2016-12-13T22:04:03.250Z,5.93
2016-12-13T22:06:57.395Z,5.94
2016-12-13T22:09:51.406Z,5.95
2016-12-13T22:12:45.486Z,5.96
2016-12-13T22:15:39.659Z,5.96
2016-12-13T22:18:34.836Z,5.96
2016-12-13T22:21:27.808Z,5.97
2016-12-13T22:24:21.933Z,5.97
2016-12-13T22:27:16.533Z,5.97
2016-12-13T22:30:10.680Z,5.98
2016-12-13T22:33:04.664Z,5.98
2016-12-13T22:35:58.780Z,5.98
2016-12-13T22:38:52.854Z,5.97
2016-12-13T22:41:46.983Z,5.98
2016-12-13T22:50:29.556Z,5.99
2016-12-13T23:05:00.319Z,6.02
2016-12-13T23:07:54.415Z,6.02
2016-12-13T23:10:48.622Z,6.02
2016-12-13T23:13:42.710Z,6.03
2016-12-13T23:16:36.931Z,6.04
2016-12-13T23:19:31.094Z,6.05
2016-12-13T23:25:19.336Z,6.05
2016-12-13T23:28:14.459Z,6.04
2016-12-13T23:34:01.828Z,6.05
2016-12-13T23:39:50.213Z,6.08
2016-12-13T23:42:44.346Z,6.09
2016-12-13T23:45:38.450Z,6.10
2016-12-13T23:48:32.682Z,6.10
2016-12-13T23:51:26.713Z,6.10
2016-12-13T23:54:20.755Z,6.11
2016-12-13T23:57:14.945Z,6.13
